sensor_id;sensor_type;location;lat;lon;timestamp;pressure;altitude;pressure_sealevel;temperature;humidity
5126;BME280;63008;53.112;8.896;2023-04-08T00:00:54;102329.00;;;7.24;81.29
5126;BME280;63008;53.112;8.896;2023-04-08T00:02:55;102322.69;;;7.28;80.74
5126;BME280;63008;53.112;8.896;2023-04-08T00:04:56;102329.53;;;7.41;80.91
5126;BME280;63008;53.112;8.896;2023-04-08T00:06:57;102325.16;;;7.35;80.56
5126;BME280;63008;53.112;8.896;2023-04-08T00:08:58;102326.25;;;7.39;80.71
5126;BME280;63008;53.112;8.896;2023-04-08T00:10:59;102334.44;;;7.34;80.31
5126;BME280;63008;53.112;8.896;2023-04-08T00:12:59;102332.00;;;7.32;81.02
5126;BME280;63008;53.112;8.896;2023-04-08T00:15:00;102329.78;;;7.29;80.92
5126;BME280;63008;53.112;8.896;2023-04-08T00:17:02;102328.69;;;7.45;80.01
5126;BME280;63008;53.112;8.896;2023-04-08T00:19:03;102332.81;;;7.43;79.91
5126;BME280;63008;53.112;8.896;2023-04-08T00:21:03;102337.44;;;7.42;80.19
5126;BME280;63008;53.112;8.896;2023-04-08T00:23:04;102344.28;;;7.45;80.96
5126;BME280;63008;53.112;8.896;2023-04-08T00:25:06;102338.00;;;7.49;80.65
5126;BME280;63008;53.112;8.896;2023-04-08T00:27:09;102332.25;;;7.56;80.40
5126;BME280;63008;53.112;8.896;2023-04-08T00:29:10;102338.53;;;7.56;79.75
5126;BME280;63008;53.112;8.896;2023-04-08T00:31:10;102338.25;;;7.48;79.61
5126;BME280;63008;53.112;8.896;2023-04-08T00:33:11;102332.28;;;7.41;80.36
5126;BME280;63008;53.112;8.896;2023-04-08T00:35:14;102338.81;;;7.25;80.70
5126;BME280;63008;53.112;8.896;2023-04-08T00:37:15;102339.06;;;7.28;80.44
5126;BME280;63008;53.112;8.896;2023-04-08T00:39:16;102343.47;;;7.34;80.19
5126;BME280;63008;53.112;8.896;2023-04-08T00:41:17;102341.25;;;7.26;80.65
5126;BME280;63008;53.112;8.896;2023-04-08T00:43:18;102343.47;;;7.34;80.33
5126;BME280;63008;53.112;8.896;2023-04-08T00:45:20;102344.81;;;7.47;80.31
5126;BME280;63008;53.112;8.896;2023-04-08T00:47:21;102344.53;;;7.43;81.06
5126;BME280;63008;53.112;8.896;2023-04-08T00:49:22;102344.25;;;7.55;79.84
5126;BME280;63008;53.112;8.896;2023-04-08T00:51:23;102338.81;;;7.45;80.64
5126;BME280;63008;53.112;8.896;2023-04-08T00:53:26;102334.44;;;7.59;80.14
5126;BME280;63008;53.112;8.896;2023-04-08T00:55:26;102334.72;;;7.57;79.46
5126;BME280;63008;53.112;8.896;2023-04-08T00:57:27;102337.72;;;7.51;79.43
5126;BME280;63008;53.112;8.896;2023-04-08T00:59:29;102335.53;;;7.38;80.50
5126;BME280;63008;53.112;8.896;2023-04-08T01:01:54;102332.53;;;7.29;80.44
5126;BME280;63008;53.112;8.896;2023-04-08T01:04:06;102331.16;;;7.17;80.29
5126;BME280;63008;53.112;8.896;2023-04-08T01:06:18;102329.81;;;7.19;81.36
5126;BME280;63008;53.112;8.896;2023-04-08T01:08:22;102330.38;;;7.31;81.21
5126;BME280;63008;53.112;8.896;2023-04-08T01:10:28;102337.44;;;7.37;80.46
5126;BME280;63008;53.112;8.896;2023-04-08T01:12:31;102333.06;;;7.46;79.99
5126;BME280;63008;53.112;8.896;2023-04-08T01:14:36;102333.09;;;7.51;79.27
5126;BME280;63008;53.112;8.896;2023-04-08T01:16:40;102337.72;;;7.51;79.40
5126;BME280;63008;53.112;8.896;2023-04-08T01:18:43;102340.47;;;7.41;79.39
5126;BME280;63008;53.112;8.896;2023-04-08T01:20:45;102338.53;;;7.51;80.05
5126;BME280;63008;53.112;8.896;2023-04-08T01:25:04;102343.16;;;7.56;79.62
5126;BME280;63008;53.112;8.896;2023-04-08T01:27:09;102341.53;;;7.50;79.97
5126;BME280;63008;53.112;8.896;2023-04-08T01:29:11;102340.19;;;7.32;80.29
5126;BME280;63008;53.112;8.896;2023-04-08T01:31:14;102338.81;;;7.50;80.00
5126;BME280;63008;53.112;8.896;2023-04-08T01:33:17;102344.00;;;7.56;80.46
5126;BME280;63008;53.112;8.896;2023-04-08T01:35:18;102347.00;;;7.55;80.07
5126;BME280;63008;53.112;8.896;2023-04-08T01:37:20;102344.00;;;7.56;79.98
5126;BME280;63008;53.112;8.896;2023-04-08T01:39:23;102351.38;;;7.46;80.35
5126;BME280;63008;53.112;8.896;2023-04-08T01:41:25;102347.53;;;7.17;81.34
5126;BME280;63008;53.112;8.896;2023-04-08T01:43:26;102348.38;;;7.18;82.00
5126;BME280;63008;53.112;8.896;2023-04-08T01:45:29;102356.56;;;7.32;81.79
5126;BME280;63008;53.112;8.896;2023-04-08T01:47:30;102358.75;;;7.45;81.03
5126;BME280;63008;53.112;8.896;2023-04-08T01:49:31;102350.84;;;7.44;81.19
5126;BME280;63008;53.112;8.896;2023-04-08T01:51:33;102353.03;;;7.42;81.31
5126;BME280;63008;53.112;8.896;2023-04-08T01:53:35;102350.00;;;7.38;81.46
5126;BME280;63008;53.112;8.896;2023-04-08T01:55:39;102349.75;;;7.30;81.79
5126;BME280;63008;53.112;8.896;2023-04-08T01:57:43;102342.38;;;7.40;81.97
5126;BME280;63008;53.112;8.896;2023-04-08T01:59:48;102339.34;;;7.32;81.58
5126;BME280;63008;53.112;8.896;2023-04-08T02:01:50;102341.53;;;7.15;82.41
5126;BME280;63008;53.112;8.896;2023-04-08T02:03:53;102341.81;;;7.43;81.75
5126;BME280;63008;53.112;8.896;2023-04-08T02:05:57;102350.28;;;7.37;81.79
5126;BME280;63008;53.112;8.896;2023-04-08T02:07:57;102346.44;;;7.13;82.17
5126;BME280;63008;53.112;8.896;2023-04-08T02:09:58;102355.19;;;7.10;82.95
5126;BME280;63008;53.112;8.896;2023-04-08T02:12:00;102349.19;;;7.23;83.05
5126;BME280;63008;53.112;8.896;2023-04-08T02:14:01;102350.00;;;7.28;83.44
5126;BME280;63008;53.112;8.896;2023-04-08T02:16:07;102348.66;;;7.41;82.33
5126;BME280;63008;53.112;8.896;2023-04-08T02:18:15;102349.44;;;7.46;80.96
5126;BME280;63008;53.112;8.896;2023-04-08T02:20:23;102354.38;;;7.39;81.64
5126;BME280;63008;53.112;8.896;2023-04-08T02:22:39;102350.03;;;7.33;81.58
5126;BME280;63008;53.112;8.896;2023-04-08T02:24:42;102352.75;;;7.38;82.35
5126;BME280;63008;53.112;8.896;2023-04-08T02:26:44;102359.59;;;7.41;82.07
5126;BME280;63008;53.112;8.896;2023-04-08T02:28:48;102357.38;;;7.38;82.55
5126;BME280;63008;53.112;8.896;2023-04-08T02:30:50;102349.16;;;7.03;83.32
5126;BME280;63008;53.112;8.896;2023-04-08T02:32:53;102353.56;;;7.24;83.41
5126;BME280;63008;53.112;8.896;2023-04-08T02:34:55;102349.47;;;7.36;82.78
5126;BME280;63008;53.112;8.896;2023-04-08T02:36:56;102346.72;;;7.56;81.91
5126;BME280;63008;53.112;8.896;2023-04-08T02:38:57;102350.28;;;7.22;82.67
5126;BME280;63008;53.112;8.896;2023-04-08T02:40:58;102350.78;;;7.04;83.49
5126;BME280;63008;53.112;8.896;2023-04-08T02:42:59;102343.69;;;6.93;83.96
5126;BME280;63008;53.112;8.896;2023-04-08T02:45:00;102341.50;;;6.95;84.36
5126;BME280;63008;53.112;8.896;2023-04-08T02:47:01;102351.88;;;6.98;84.97
5126;BME280;63008;53.112;8.896;2023-04-08T02:49:02;102345.59;;;6.88;84.77
5126;BME280;63008;53.112;8.896;2023-04-08T02:51:03;102346.13;;;6.80;85.35
5126;BME280;63008;53.112;8.896;2023-04-08T02:53:04;102348.88;;;6.80;85.57
5126;BME280;63008;53.112;8.896;2023-04-08T02:55:06;102354.03;;;6.76;85.91
5126;BME280;63008;53.112;8.896;2023-04-08T02:57:09;102348.03;;;6.79;85.57
5126;BME280;63008;53.112;8.896;2023-04-08T02:59:10;102349.69;;;6.90;85.78
5126;BME280;63008;53.112;8.896;2023-04-08T03:01:11;102340.44;;;6.91;85.64
5126;BME280;63008;53.112;8.896;2023-04-08T03:03:12;102345.09;;;7.16;85.02
5126;BME280;63008;53.112;8.896;2023-04-08T03:05:13;102348.31;;;6.93;85.09
5126;BME280;63008;53.112;8.896;2023-04-08T03:07:15;102347.53;;;6.87;85.60
5126;BME280;63008;53.112;8.896;2023-04-08T03:09:16;102345.84;;;6.81;85.77
5126;BME280;63008;53.112;8.896;2023-04-08T03:11:17;102343.97;;;6.87;85.89
5126;BME280;63008;53.112;8.896;2023-04-08T03:13:18;102349.44;;;7.02;86.07
5126;BME280;63008;53.112;8.896;2023-04-08T03:15:19;102357.66;;;7.26;85.83
5126;BME280;63008;53.112;8.896;2023-04-08T03:17:20;102349.44;;;7.12;84.43
5126;BME280;63008;53.112;8.896;2023-04-08T03:19:21;102360.38;;;7.17;85.09
5126;BME280;63008;53.112;8.896;2023-04-08T03:21:25;102351.66;;;7.24;84.71
5126;BME280;63008;53.112;8.896;2023-04-08T03:23:26;102358.72;;;7.06;84.68
5126;BME280;63008;53.112;8.896;2023-04-08T03:25:27;102347.81;;;7.11;85.21
5126;BME280;63008;53.112;8.896;2023-04-08T03:27:28;102351.91;;;7.08;85.28
5126;BME280;63008;53.112;8.896;2023-04-08T03:29:29;102359.00;;;7.19;85.97
5126;BME280;63008;53.112;8.896;2023-04-08T03:31:30;102361.47;;;7.30;84.78
5126;BME280;63008;53.112;8.896;2023-04-08T03:33:31;102359.59;;;7.41;84.25
5126;BME280;63008;53.112;8.896;2023-04-08T03:35:33;102363.13;;;7.41;84.22
5126;BME280;63008;53.112;8.896;2023-04-08T03:37:34;102359.56;;;7.36;84.58
5126;BME280;63008;53.112;8.896;2023-04-08T03:39:34;102360.13;;;7.23;83.97
5126;BME280;63008;53.112;8.896;2023-04-08T03:41:35;102366.41;;;7.14;84.84
5126;BME280;63008;53.112;8.896;2023-04-08T03:43:36;102359.56;;;7.31;84.70
5126;BME280;63008;53.112;8.896;2023-04-08T03:45:37;102362.28;;;7.21;84.41
5126;BME280;63008;53.112;8.896;2023-04-08T03:47:39;102359.25;;;7.13;84.66
5126;BME280;63008;53.112;8.896;2023-04-08T03:49:40;102350.25;;;6.97;85.61
5126;BME280;63008;53.112;8.896;2023-04-08T03:51:41;102354.88;;;6.87;86.32
5126;BME280;63008;53.112;8.896;2023-04-08T03:53:42;102350.75;;;6.74;87.28
5126;BME280;63008;53.112;8.896;2023-04-08T03:55:43;102355.72;;;6.87;86.99
5126;BME280;63008;53.112;8.896;2023-04-08T03:57:44;102359.50;;;6.81;87.23
5126;BME280;63008;53.112;8.896;2023-04-08T03:59:45;102354.03;;;6.86;87.39
5126;BME280;63008;53.112;8.896;2023-04-08T04:01:46;102351.31;;;6.81;87.21
5126;BME280;63008;53.112;8.896;2023-04-08T04:03:47;102354.81;;;6.72;87.97
5126;BME280;63008;53.112;8.896;2023-04-08T04:05:48;102359.22;;;6.83;88.43
5126;BME280;63008;53.112;8.896;2023-04-08T04:07:49;102368.78;;;6.85;87.98
5126;BME280;63008;53.112;8.896;2023-04-08T04:09:50;102369.06;;;6.84;88.11
5126;BME280;63008;53.112;8.896;2023-04-08T04:11:53;102369.59;;;6.81;88.14
5126;BME280;63008;53.112;8.896;2023-04-08T04:13:54;102365.75;;;6.77;88.54
5126;BME280;63008;53.112;8.896;2023-04-08T04:15:55;102363.00;;;6.77;88.66
5126;BME280;63008;53.112;8.896;2023-04-08T04:17:57;102364.94;;;6.76;89.21
5126;BME280;63008;53.112;8.896;2023-04-08T04:19:58;102367.91;;;6.65;89.64
5126;BME280;63008;53.112;8.896;2023-04-08T04:21:59;102369.00;;;6.74;89.99
5126;BME280;63008;53.112;8.896;2023-04-08T04:24:00;102376.94;;;6.75;89.84
5126;BME280;63008;53.112;8.896;2023-04-08T04:26:01;102370.41;;;6.71;90.03
5126;BME280;63008;53.112;8.896;2023-04-08T04:28:02;102376.09;;;6.70;89.84
5126;BME280;63008;53.112;8.896;2023-04-08T04:30:03;102378.81;;;6.65;90.50
5126;BME280;63008;53.112;8.896;2023-04-08T04:32:06;102380.47;;;6.66;90.53
5126;BME280;63008;53.112;8.896;2023-04-08T04:34:07;102383.44;;;6.64;90.67
5126;BME280;63008;53.112;8.896;2023-04-08T04:36:08;102386.22;;;6.69;90.73
5126;BME280;63008;53.112;8.896;2023-04-08T04:38:09;102382.94;;;6.72;90.64
5126;BME280;63008;53.112;8.896;2023-04-08T04:40:13;102385.94;;;6.71;90.66
5126;BME280;63008;53.112;8.896;2023-04-08T04:42:14;102394.41;;;6.74;90.86
5126;BME280;63008;53.112;8.896;2023-04-08T04:44:15;102389.19;;;6.68;90.52
5126;BME280;63008;53.112;8.896;2023-04-08T04:46:16;102399.53;;;6.61;91.21
5126;BME280;63008;53.112;8.896;2023-04-08T04:48:17;102387.00;;;6.65;90.92
5126;BME280;63008;53.112;8.896;2023-04-08T04:50:18;102387.56;;;6.72;91.05
5126;BME280;63008;53.112;8.896;2023-04-08T04:52:19;102387.31;;;6.73;90.88
5126;BME280;63008;53.112;8.896;2023-04-08T04:54:20;102394.72;;;6.88;90.19
5126;BME280;63008;53.112;8.896;2023-04-08T04:56:21;102392.50;;;6.80;90.47
5126;BME280;63008;53.112;8.896;2023-04-08T04:58:22;102391.13;;;6.72;90.75
5126;BME280;63008;53.112;8.896;2023-04-08T05:00:23;102401.25;;;6.82;90.47
5126;BME280;63008;53.112;8.896;2023-04-08T05:02:24;102400.16;;;6.83;90.50
5126;BME280;63008;53.112;8.896;2023-04-08T05:04:25;102399.06;;;6.84;90.44
5126;BME280;63008;53.112;8.896;2023-04-08T05:06:26;102405.06;;;6.81;90.50
5126;BME280;63008;53.112;8.896;2023-04-08T05:08:27;102402.34;;;6.81;90.91
5126;BME280;63008;53.112;8.896;2023-04-08T05:10:28;102404.28;;;6.95;90.42
5126;BME280;63008;53.112;8.896;2023-04-08T05:12:29;102400.47;;;6.91;90.40
5126;BME280;63008;53.112;8.896;2023-04-08T05:14:30;102405.38;;;6.89;90.38
5126;BME280;63008;53.112;8.896;2023-04-08T05:16:32;102404.25;;;6.85;90.50
5126;BME280;63008;53.112;8.896;2023-04-08T05:18:33;102401.25;;;6.87;91.02
5126;BME280;63008;53.112;8.896;2023-04-08T05:20:34;102408.09;;;6.89;90.55
5126;BME280;63008;53.112;8.896;2023-04-08T05:22:35;102414.34;;;6.90;90.42
5126;BME280;63008;53.112;8.896;2023-04-08T05:24:36;102413.56;;;6.89;90.55
5126;BME280;63008;53.112;8.896;2023-04-08T05:26:37;102409.47;;;6.97;90.41
5126;BME280;63008;53.112;8.896;2023-04-08T05:28:38;102412.22;;;6.97;90.35
5126;BME280;63008;53.112;8.896;2023-04-08T05:30:39;102413.31;;;7.06;90.08
5126;BME280;63008;53.112;8.896;2023-04-08T05:32:40;102414.94;;;7.02;90.07
5126;BME280;63008;53.112;8.896;2023-04-08T05:34:41;102416.03;;;7.01;89.97
5126;BME280;63008;53.112;8.896;2023-04-08T05:36:45;102414.94;;;6.97;90.29
5126;BME280;63008;53.112;8.896;2023-04-08T05:38:46;102413.56;;;7.04;89.85
5126;BME280;63008;53.112;8.896;2023-04-08T05:40:47;102420.66;;;6.95;90.22
5126;BME280;63008;53.112;8.896;2023-04-08T05:42:48;102419.31;;;6.98;90.30
5126;BME280;63008;53.112;8.896;2023-04-08T05:44:49;102418.78;;;7.06;90.07
5126;BME280;63008;53.112;8.896;2023-04-08T05:46:50;102423.38;;;7.00;90.24
5126;BME280;63008;53.112;8.896;2023-04-08T05:48:51;102420.94;;;6.99;90.40
5126;BME280;63008;53.112;8.896;2023-04-08T05:50:53;102432.97;;;7.08;90.56
5126;BME280;63008;53.112;8.896;2023-04-08T05:52:54;102431.88;;;7.09;90.28
5126;BME280;63008;53.112;8.896;2023-04-08T05:54:55;102425.63;;;7.18;90.20
5126;BME280;63008;53.112;8.896;2023-04-08T05:56:56;102431.09;;;7.28;89.47
5126;BME280;63008;53.112;8.896;2023-04-08T05:58:57;102442.03;;;7.23;89.28
5126;BME280;63008;53.112;8.896;2023-04-08T06:00:58;102440.59;;;7.06;89.76
5126;BME280;63008;53.112;8.896;2023-04-08T06:02:59;102441.66;;;6.90;90.45
5126;BME280;63008;53.112;8.896;2023-04-08T06:05:00;102440.31;;;7.02;90.63
5126;BME280;63008;53.112;8.896;2023-04-08T06:07:01;102441.16;;;7.13;90.27
5126;BME280;63008;53.112;8.896;2023-04-08T06:09:04;102445.84;;;7.27;89.83
5126;BME280;63008;53.112;8.896;2023-04-08T06:11:05;102448.84;;;7.30;89.70
5126;BME280;63008;53.112;8.896;2023-04-08T06:13:06;102452.44;;;7.41;88.75
5126;BME280;63008;53.112;8.896;2023-04-08T06:15:07;102450.22;;;7.23;89.14
5126;BME280;63008;53.112;8.896;2023-04-08T06:17:09;102450.47;;;7.26;89.40
5126;BME280;63008;53.112;8.896;2023-04-08T06:19:10;102455.16;;;7.41;89.08
5126;BME280;63008;53.112;8.896;2023-04-08T06:21:11;102455.69;;;7.38;88.96
5126;BME280;63008;53.112;8.896;2023-04-08T06:23:12;102462.50;;;7.30;88.92
5126;BME280;63008;53.112;8.896;2023-04-08T06:25:13;102462.78;;;7.39;88.93
5126;BME280;63008;53.112;8.896;2023-04-08T06:27:14;102467.19;;;7.55;88.84
5126;BME280;63008;53.112;8.896;2023-04-08T06:29:15;102473.22;;;7.62;87.96
5126;BME280;63008;53.112;8.896;2023-04-08T06:31:16;102467.72;;;7.57;88.35
5126;BME280;63008;53.112;8.896;2023-04-08T06:33:17;102470.69;;;7.25;88.64
5126;BME280;63008;53.112;8.896;2023-04-08T06:35:18;102480.25;;;7.28;88.85
5126;BME280;63008;53.112;8.896;2023-04-08T06:37:19;102476.72;;;7.32;88.94
5126;BME280;63008;53.112;8.896;2023-04-08T06:39:20;102476.72;;;7.32;89.31
5126;BME280;63008;53.112;8.896;2023-04-08T06:41:21;102481.34;;;7.37;89.45
5126;BME280;63008;53.112;8.896;2023-04-08T06:43:22;102484.63;;;7.24;89.15
5126;BME280;63008;53.112;8.896;2023-04-08T06:45:23;102491.19;;;7.23;89.68
5126;BME280;63008;53.112;8.896;2023-04-08T06:47:24;102498.00;;;7.25;89.63
5126;BME280;63008;53.112;8.896;2023-04-08T06:49:25;102495.03;;;7.42;89.09
5126;BME280;63008;53.112;8.896;2023-04-08T06:51:27;102504.34;;;7.46;88.21
5126;BME280;63008;53.112;8.896;2023-04-08T06:53:28;102502.97;;;7.58;88.13
5126;BME280;63008;53.112;8.896;2023-04-08T06:55:30;102507.94;;;7.66;87.70
5126;BME280;63008;53.112;8.896;2023-04-08T06:57:31;102512.28;;;7.57;87.89
5126;BME280;63008;53.112;8.896;2023-04-08T06:59:32;102516.09;;;7.61;86.88
5126;BME280;63008;53.112;8.896;2023-04-08T07:01:33;102523.19;;;7.57;87.12
5126;BME280;63008;53.112;8.896;2023-04-08T07:03:34;102515.84;;;7.63;87.12
5126;BME280;63008;53.112;8.896;2023-04-08T07:05:35;102520.50;;;7.72;86.94
5126;BME280;63008;53.112;8.896;2023-04-08T07:07:36;102515.59;;;7.84;86.04
5126;BME280;63008;53.112;8.896;2023-04-08T07:09:37;102517.75;;;7.62;85.58
5126;BME280;63008;53.112;8.896;2023-04-08T07:11:39;102521.84;;;7.60;86.71
5126;BME280;63008;53.112;8.896;2023-04-08T07:13:40;102525.13;;;7.67;86.35
5126;BME280;63008;53.112;8.896;2023-04-08T07:15:41;102519.41;;;7.78;85.40
5126;BME280;63008;53.112;8.896;2023-04-08T07:17:42;102519.16;;;7.80;84.95
5126;BME280;63008;53.112;8.896;2023-04-08T07:19:43;102522.94;;;7.74;85.16
5126;BME280;63008;53.112;8.896;2023-04-08T07:21:44;102524.88;;;7.68;85.08
5126;BME280;63008;53.112;8.896;2023-04-08T07:23:45;102521.88;;;7.75;85.37
5126;BME280;63008;53.112;8.896;2023-04-08T07:25:46;102525.44;;;7.85;84.77
5126;BME280;63008;53.112;8.896;2023-04-08T07:27:48;102522.97;;;7.99;84.79
5126;BME280;63008;53.112;8.896;2023-04-08T07:29:52;102526.25;;;8.01;85.05
5126;BME280;63008;53.112;8.896;2023-04-08T07:31:54;102524.06;;;8.03;84.79
5126;BME280;63008;53.112;8.896;2023-04-08T07:33:55;102527.94;;;8.22;84.53
5126;BME280;63008;53.112;8.896;2023-04-08T07:35:56;102523.56;;;8.21;84.05
5126;BME280;63008;53.112;8.896;2023-04-08T07:37:58;102526.81;;;8.38;83.56
5126;BME280;63008;53.112;8.896;2023-04-08T07:39:59;102526.00;;;8.27;84.06
5126;BME280;63008;53.112;8.896;2023-04-08T07:41:59;102522.75;;;8.25;83.84
5126;BME280;63008;53.112;8.896;2023-04-08T07:44:01;102530.94;;;8.20;82.91
5126;BME280;63008;53.112;8.896;2023-04-08T07:46:03;102530.91;;;8.05;83.98
5126;BME280;63008;53.112;8.896;2023-04-08T07:48:04;102535.81;;;8.13;83.53
5126;BME280;63008;53.112;8.896;2023-04-08T07:50:06;102533.91;;;8.04;84.49
5126;BME280;63008;53.112;8.896;2023-04-08T07:52:07;102527.91;;;8.17;83.53
5126;BME280;63008;53.112;8.896;2023-04-08T07:54:08;102531.19;;;8.39;82.46
5126;BME280;63008;53.112;8.896;2023-04-08T07:56:13;102522.97;;;8.44;82.23
5126;BME280;63008;53.112;8.896;2023-04-08T07:58:14;102534.44;;;8.56;81.52
5126;BME280;63008;53.112;8.896;2023-04-08T08:00:15;102532.28;;;8.48;82.10
5126;BME280;63008;53.112;8.896;2023-04-08T08:02:21;102536.94;;;8.47;81.21
5126;BME280;63008;53.112;8.896;2023-04-08T08:04:22;102538.56;;;8.48;81.66
5126;BME280;63008;53.112;8.896;2023-04-08T08:06:25;102536.66;;;8.64;81.07
5126;BME280;63008;53.112;8.896;2023-04-08T08:08:27;102532.84;;;8.25;82.13
5126;BME280;63008;53.112;8.896;2023-04-08T08:10:28;102532.81;;;8.05;83.78
5126;BME280;63008;53.112;8.896;2023-04-08T08:12:29;102535.84;;;8.28;82.91
5126;BME280;63008;53.112;8.896;2023-04-08T08:14:30;102533.94;;;8.24;83.27
5126;BME280;63008;53.112;8.896;2023-04-08T08:16:31;102537.78;;;8.28;82.97
5126;BME280;63008;53.112;8.896;2023-04-08T08:18:33;102538.03;;;8.46;81.91
5126;BME280;63008;53.112;8.896;2023-04-08T08:20:35;102543.19;;;8.58;82.09
5126;BME280;63008;53.112;8.896;2023-04-08T08:22:36;102545.38;;;8.61;81.29
5126;BME280;63008;53.112;8.896;2023-04-08T08:24:39;102542.91;;;8.69;81.39
5126;BME280;63008;53.112;8.896;2023-04-08T08:26:40;102548.63;;;8.78;80.77
5126;BME280;63008;53.112;8.896;2023-04-08T08:28:41;102541.78;;;8.80;80.83
5126;BME280;63008;53.112;8.896;2023-04-08T08:30:42;102543.19;;;8.58;81.31
5126;BME280;63008;53.112;8.896;2023-04-08T08:32:43;102536.38;;;8.55;82.14
5126;BME280;63008;53.112;8.896;2023-04-08T08:34:44;102540.22;;;8.29;82.68
5126;BME280;63008;53.112;8.896;2023-04-08T08:36:45;102542.94;;;8.34;83.22
5126;BME280;63008;53.112;8.896;2023-04-08T08:38:46;102544.88;;;8.49;83.09
5126;BME280;63008;53.112;8.896;2023-04-08T08:40:58;102543.97;;;8.83;81.81
5126;BME280;63008;53.112;8.896;2023-04-08T08:43:00;102547.25;;;8.90;81.00
5126;BME280;63008;53.112;8.896;2023-04-08T08:45:02;102552.16;;;8.93;80.06
5126;BME280;63008;53.112;8.896;2023-04-08T08:47:04;102554.38;;;8.81;81.18
5126;BME280;63008;53.112;8.896;2023-04-08T08:49:05;102560.63;;;9.02;81.47
5126;BME280;63008;53.112;8.896;2023-04-08T08:51:09;102563.34;;;9.06;80.69
5126;BME280;63008;53.112;8.896;2023-04-08T08:53:10;102563.84;;;9.13;79.11
5126;BME280;63008;53.112;8.896;2023-04-08T08:55:11;102565.50;;;9.09;79.68
5126;BME280;63008;53.112;8.896;2023-04-08T08:57:17;102573.47;;;9.01;78.94
5126;BME280;63008;53.112;8.896;2023-04-08T08:59:19;102573.47;;;9.06;80.25
5126;BME280;63008;53.112;8.896;2023-04-08T09:01:36;102570.69;;;9.16;80.65
5126;BME280;63008;53.112;8.896;2023-04-08T09:03:37;102577.41;;;8.65;81.79
5126;BME280;63008;53.112;8.896;2023-04-08T09:07:53;102579.31;;;8.60;82.80
5126;BME280;63008;53.112;8.896;2023-04-08T09:09:55;102582.63;;;8.42;83.39
5126;BME280;63008;53.112;8.896;2023-04-08T09:12:02;102586.72;;;8.74;81.98
5126;BME280;63008;53.112;8.896;2023-04-08T09:14:04;102585.06;;;8.53;82.53
5126;BME280;63008;53.112;8.896;2023-04-08T09:16:08;102590.84;;;8.52;83.61
5126;BME280;63008;53.112;8.896;2023-04-08T09:18:22;102583.72;;;8.56;84.22
5126;BME280;63008;53.112;8.896;2023-04-08T09:20:22;102590.28;;;8.65;83.68
5126;BME280;63008;53.112;8.896;2023-04-08T09:22:23;102590.81;;;8.67;83.85
5126;BME280;63008;53.112;8.896;2023-04-08T09:24:27;102589.97;;;8.81;83.26
5126;BME280;63008;53.112;8.896;2023-04-08T09:26:28;102597.13;;;8.62;82.53
5126;BME280;63008;53.112;8.896;2023-04-08T09:28:30;102594.63;;;8.71;83.49
5126;BME280;63008;53.112;8.896;2023-04-08T09:30:31;102599.53;;;8.99;81.76
5126;BME280;63008;53.112;8.896;2023-04-08T09:32:49;102601.50;;;8.58;82.99
5126;BME280;63008;53.112;8.896;2023-04-08T09:34:50;102600.97;;;8.56;84.83
5126;BME280;63008;53.112;8.896;2023-04-08T09:36:52;102604.50;;;8.67;83.50
5126;BME280;63008;53.112;8.896;2023-04-08T09:38:54;102602.31;;;8.44;84.10
5126;BME280;63008;53.112;8.896;2023-04-08T09:40:55;102600.66;;;8.73;82.96
5126;BME280;63008;53.112;8.896;2023-04-08T09:43:00;102605.56;;;8.86;82.10
5126;BME280;63008;53.112;8.896;2023-04-08T09:45:05;102598.69;;;8.98;81.80
5126;BME280;63008;53.112;8.896;2023-04-08T09:47:18;102611.53;;;9.07;82.66
5126;BME280;63008;53.112;8.896;2023-04-08T09:49:28;102608.84;;;8.88;83.15
5126;BME280;63008;53.112;8.896;2023-04-08T09:51:31;102604.97;;;9.08;82.10
5126;BME280;63008;53.112;8.896;2023-04-08T09:53:37;102609.91;;;9.02;82.12
5126;BME280;63008;53.112;8.896;2023-04-08T09:55:40;102602.28;;;8.89;83.26
5126;BME280;63008;53.112;8.896;2023-04-08T09:57:48;102607.94;;;9.17;81.57
5126;BME280;63008;53.112;8.896;2023-04-08T09:59:57;102606.97;;;8.73;82.92
5126;BME280;63008;53.112;8.896;2023-04-08T10:02:08;102601.22;;;8.50;84.34
5126;BME280;63008;53.112;8.896;2023-04-08T10:04:15;102603.41;;;8.73;83.92
5126;BME280;63008;53.112;8.896;2023-04-08T10:06:17;102606.13;;;8.58;84.72
5126;BME280;63008;53.112;8.896;2023-04-08T10:08:22;102609.94;;;8.87;85.12
5126;BME280;63008;53.112;8.896;2023-04-08T10:10:24;102605.28;;;8.92;83.17
5126;BME280;63008;53.112;8.896;2023-04-08T10:12:31;102606.03;;;9.12;82.15
5126;BME280;63008;53.112;8.896;2023-04-08T10:14:33;102611.19;;;9.29;81.30
5126;BME280;63008;53.112;8.896;2023-04-08T10:16:34;102609.25;;;9.29;80.57
5126;BME280;63008;53.112;8.896;2023-04-08T10:18:35;102614.75;;;9.34;81.46
5126;BME280;63008;53.112;8.896;2023-04-08T10:22:47;102599.84;;;9.50;81.41
5126;BME280;63008;53.112;8.896;2023-04-08T10:27:38;102619.38;;;9.39;80.12
5126;BME280;63008;53.112;8.896;2023-04-08T10:29:40;102606.66;;;9.00;82.06
5126;BME280;63008;53.112;8.896;2023-04-08T10:31:43;102609.03;;;9.21;81.47
5126;BME280;63008;53.112;8.896;2023-04-08T10:33:44;102619.66;;;9.37;82.00
5126;BME280;63008;53.112;8.896;2023-04-08T10:36:10;102618.88;;;9.27;81.67
5126;BME280;63008;53.112;8.896;2023-04-08T10:38:13;102625.69;;;9.39;81.37
5126;BME280;63008;53.112;8.896;2023-04-08T10:40:20;102623.22;;;9.38;81.09
5126;BME280;63008;53.112;8.896;2023-04-08T10:42:26;102619.38;;;9.44;80.68
5126;BME280;63008;53.112;8.896;2023-04-08T10:44:27;102624.09;;;9.23;81.35
5126;BME280;63008;53.112;8.896;2023-04-08T10:46:28;102624.91;;;9.24;82.60
5126;BME280;63008;53.112;8.896;2023-04-08T10:48:29;102635.06;;;9.13;82.23
5126;BME280;63008;53.112;8.896;2023-04-08T10:50:30;102628.72;;;9.23;82.12
5126;BME280;63008;53.112;8.896;2023-04-08T10:52:32;102634.19;;;9.33;80.87
5126;BME280;63008;53.112;8.896;2023-04-08T10:54:32;102628.22;;;9.26;80.94
5126;BME280;63008;53.112;8.896;2023-04-08T10:56:43;102620.44;;;9.48;81.11
5126;BME280;63008;53.112;8.896;2023-04-08T10:58:49;102626.44;;;9.55;80.38
5126;BME280;63008;53.112;8.896;2023-04-08T11:00:50;102620.19;;;9.39;80.68
5126;BME280;63008;53.112;8.896;2023-04-08T11:02:52;102623.75;;;9.45;80.95
5126;BME280;63008;53.112;8.896;2023-04-08T11:04:54;102617.78;;;9.23;81.88